Time;durP1;ratioP1;P1;durP2;ratioP2;P2;SDS_P1;SDS_P2;PMS_P1;PMS_P2;Temp;Humidity;BMP_temperature;BMP_pressure;BME280_temperature;BME280_humidity;BME280_pressure;Samples;Min_cycle;Max_cycle;Signal;HPM_P1;HPM_P2
2021/12/03 00:01:15;;;;;;;15.82;5.95;;;2.30;99.90;;;;;;5024370;28;20134;-55
2021/12/03 00:03:42;;;;;;;15.77;5.63;;;2.20;99.90;;;;;;5029497;28;20078;-54
2021/12/03 00:06:08;;;;;;;16.25;5.25;;;2.20;99.90;;;;;;5029805;28;20021;-56
2021/12/03 00:08:34;;;;;;;16.15;5.97;;;2.30;99.90;;;;;;5027694;28;20056;-55
2021/12/03 00:11:02;;;;;;;15.05;6.85;;;2.20;99.90;;;;;;5026740;28;20032;-56
2021/12/03 00:13:30;;;;;;;19.35;7.00;;;2.20;99.90;;;;;;5009621;28;20105;-55
2021/12/03 00:15:57;;;;;;;16.08;6.15;;;2.20;99.90;;;;;;5003020;28;20073;-54
2021/12/03 00:18:24;;;;;;;18.17;6.35;;;2.20;99.90;;;;;;4999451;28;20093;-54
2021/12/03 00:20:50;;;;;;;14.03;5.47;;;2.20;99.90;;;;;;4997641;28;20050;-55
2021/12/03 00:23:17;;;;;;;17.10;5.85;;;2.20;99.90;;;;;;4997039;28;20340;-54
2021/12/03 00:25:43;;;;;;;15.52;6.43;;;2.20;99.90;;;;;;4999045;28;20053;-54
2021/12/03 00:28:09;;;;;;;19.90;7.28;;;2.20;99.90;;;;;;4997924;28;20723;-53
2021/12/03 00:30:37;;;;;;;19.77;6.38;;;2.20;99.90;;;;;;4997339;28;20056;-53
2021/12/03 00:33:03;;;;;;;24.67;7.45;;;2.20;99.90;;;;;;4999308;28;20109;-54
2021/12/03 00:35:29;;;;;;;16.88;6.47;;;2.20;99.90;;;;;;5004763;28;20037;-54
2021/12/03 00:37:55;;;;;;;16.20;6.75;;;2.20;99.90;;;;;;5009137;28;20105;-53
2021/12/03 00:40:26;;;;;;;15.02;6.03;;;2.20;99.90;;;;;;4990973;28;20099;-53
2021/12/03 00:42:52;;;;;;;16.95;6.43;;;2.20;99.90;;;;;;5008751;28;20465;-53
2021/12/03 00:45:18;;;;;;;18.33;6.47;;;2.10;99.90;;;;;;5008979;28;20037;-53
2021/12/03 00:47:44;;;;;;;22.02;7.97;;;2.10;99.90;;;;;;5009098;28;20666;-53
2021/12/03 00:50:13;;;;;;;20.75;5.85;;;2.10;99.90;;;;;;5008511;28;20041;-55
2021/12/03 00:52:39;;;;;;;22.27;6.18;;;2.00;99.90;;;;;;5013802;28;20060;-53
2021/12/03 00:55:07;;;;;;;14.65;5.75;;;2.00;99.90;;;;;;5028564;28;20036;-53
2021/12/03 00:57:32;;;;;;;14.00;5.63;;;2.00;99.90;;;;;;5028504;28;20025;-53
2021/12/03 00:59:58;;;;;;;16.35;4.82;;;2.00;99.90;;;;;;5027816;28;20048;-53
2021/12/03 01:02:24;;;;;;;10.82;4.63;;;2.00;99.90;;;;;;5042203;28;20025;-53
2021/12/03 01:04:50;;;;;;;12.80;4.65;;;1.90;99.90;;;;;;5048343;28;20395;-53
2021/12/03 01:07:16;;;;;;;14.23;3.88;;;1.90;99.90;;;;;;5048531;28;20025;-53
2021/12/03 01:09:43;;;;;;;12.25;5.25;;;1.90;99.90;;;;;;5048427;28;20040;-53
2021/12/03 01:12:09;;;;;;;20.50;6.77;;;1.90;99.90;;;;;;5048404;28;20110;-54
2021/12/03 01:14:36;;;;;;;16.17;6.22;;;1.90;99.90;;;;;;5048495;28;20268;-54
2021/12/03 01:17:03;;;;;;;16.08;5.47;;;1.90;99.90;;;;;;5048680;28;20021;-54
2021/12/03 01:19:29;;;;;;;16.27;6.18;;;1.90;99.90;;;;;;5047935;28;20140;-54
2021/12/03 01:21:54;;;;;;;17.65;5.85;;;1.90;99.90;;;;;;5048078;28;20111;-54
2021/12/03 01:24:20;;;;;;;15.48;6.35;;;1.90;99.90;;;;;;5047700;28;20037;-53
2021/12/03 01:26:46;;;;;;;14.98;5.80;;;1.80;99.90;;;;;;5048150;28;20025;-54
2021/12/03 01:29:12;;;;;;;15.63;4.20;;;1.80;99.90;;;;;;5047927;28;20585;-53
2021/12/03 01:31:38;;;;;;;16.13;4.85;;;1.80;99.90;;;;;;5045229;28;20032;-53
2021/12/03 01:34:04;;;;;;;11.10;4.30;;;1.70;99.90;;;;;;5027928;28;20539;-53
2021/12/03 01:36:30;;;;;;;13.55;4.38;;;1.60;99.90;;;;;;5027998;28;20033;-53
2021/12/03 01:38:56;;;;;;;13.35;4.20;;;1.60;99.90;;;;;;5028020;28;20026;-52
2021/12/03 01:41:21;;;;;;;12.13;4.00;;;1.60;99.90;;;;;;5028090;28;20030;-52
2021/12/03 01:43:48;;;;;;;12.35;4.10;;;1.50;99.90;;;;;;5027620;28;20033;-53
2021/12/03 01:46:18;;;;;;;14.48;4.60;;;1.40;99.90;;;;;;5028005;28;20473;-53
2021/12/03 01:48:44;;;;;;;15.15;4.82;;;1.30;99.90;;;;;;5027605;28;20408;-53
2021/12/03 01:51:10;;;;;;;11.40;4.22;;;1.30;99.90;;;;;;5027700;28;20022;-53
2021/12/03 01:53:38;;;;;;;12.38;4.57;;;1.30;99.90;;;;;;5027643;28;20061;-53
2021/12/03 01:56:11;;;;;;;12.60;5.22;;;1.30;99.90;;;;;;5028066;28;20052;-53
2021/12/03 01:58:39;;;;;;;17.38;5.20;;;1.30;99.90;;;;;;5027621;28;20500;-53
2021/12/03 02:01:08;;;;;;;12.85;4.97;;;1.20;99.90;;;;;;5027896;28;20059;-53
2021/12/03 02:03:37;;;;;;;13.93;4.93;;;1.20;99.90;;;;;;5045186;28;20031;-52
2021/12/03 02:06:05;;;;;;;18.80;5.50;;;1.20;99.90;;;;;;5047714;28;20028;-53
2021/12/03 02:08:30;;;;;;;17.35;5.15;;;1.20;99.90;;;;;;5047579;28;20523;-53
2021/12/03 02:10:57;;;;;;;26.47;7.33;;;1.20;99.90;;;;;;5049005;28;20037;-53
2021/12/03 02:13:23;;;;;;;13.43;4.93;;;1.20;99.90;;;;;;5050854;28;20076;-53
2021/12/03 02:15:49;;;;;;;10.48;4.65;;;1.10;99.90;;;;;;5051670;28;20056;-53
2021/12/03 02:18:16;;;;;;;16.25;5.45;;;1.10;99.90;;;;;;5051468;28;20100;-53
2021/12/03 02:20:44;;;;;;;13.38;4.97;;;1.10;99.90;;;;;;5051553;28;20484;-53
2021/12/03 02:23:10;;;;;;;14.23;4.90;;;1.00;99.90;;;;;;5051059;28;20380;-53
2021/12/03 02:25:36;;;;;;;14.57;5.07;;;1.00;99.90;;;;;;5051099;28;20502;-53
2021/12/03 02:28:02;;;;;;;12.27;4.20;;;1.00;99.90;;;;;;5051065;28;20100;-53
2021/12/03 02:30:27;;;;;;;15.30;5.43;;;1.00;99.90;;;;;;5051354;28;20115;-53
2021/12/03 02:32:54;;;;;;;15.13;4.70;;;0.90;99.90;;;;;;5037626;28;20060;-53
2021/12/03 02:35:23;;;;;;;11.10;4.82;;;0.90;99.90;;;;;;5031224;28;20034;-53
2021/12/03 02:37:50;;;;;;;11.80;4.53;;;0.90;99.90;;;;;;5031308;28;20443;-53
2021/12/03 02:40:17;;;;;;;15.88;4.78;;;0.80;99.90;;;;;;5012967;28;20697;-54
2021/12/03 02:42:44;;;;;;;12.30;4.90;;;0.80;99.90;;;;;;5030743;28;20044;-53
2021/12/03 02:45:11;;;;;;;11.45;3.60;;;0.80;99.90;;;;;;5031007;28;20565;-54
2021/12/03 02:47:38;;;;;;;;;;;0.80;99.90;;;;;;5031619;28;20039;-54
2021/12/03 02:50:06;;;;;;;15.27;3.85;;;0.80;99.90;;;;;;5030839;28;20035;-53
2021/12/03 02:52:32;;;;;;;12.40;4.50;;;0.70;99.90;;;;;;5030607;28;20901;-54
2021/12/03 02:54:58;;;;;;;9.98;3.78;;;0.80;99.90;;;;;;5030984;28;20083;-53
2021/12/03 02:57:24;;;;;;;11.98;3.33;;;0.70;99.90;;;;;;5030757;28;20022;-54
2021/12/03 02:59:50;;;;;;;10.50;3.60;;;0.70;99.90;;;;;;5030864;28;20028;-54
2021/12/03 03:02:16;;;;;;;12.15;3.55;;;0.70;99.90;;;;;;5038788;28;20021;-53
2021/12/03 03:04:42;;;;;;;13.95;3.75;;;0.70;99.90;;;;;;5032416;28;20032;-53
2021/12/03 03:07:07;;;;;;;9.95;3.72;;;0.70;99.90;;;;;;5050756;28;20037;-54
2021/12/03 03:09:34;;;;;;;10.48;3.88;;;0.70;99.90;;;;;;5050240;28;20247;-54
2021/12/03 03:12:00;;;;;;;14.80;3.83;;;0.70;99.90;;;;;;5016572;28;20725;-54
2021/12/03 03:14:27;;;;;;;11.00;4.05;;;0.70;99.90;;;;;;5028894;28;20033;-53
2021/12/03 03:16:53;;;;;;;12.43;3.38;;;0.70;99.90;;;;;;5030461;28;20454;-54
2021/12/03 03:19:22;;;;;;;11.80;3.70;;;0.70;99.90;;;;;;5029936;28;20120;-54
2021/12/03 03:21:49;;;;;;;11.38;3.35;;;0.70;99.90;;;;;;5030154;28;20271;-53
2021/12/03 03:24:16;;;;;;;13.70;3.28;;;0.70;99.90;;;;;;5030193;28;20021;-54
2021/12/03 03:26:43;;;;;;;;;;;0.70;99.90;;;;;;5030604;28;20059;-54
2021/12/03 03:29:10;;;;;;;10.63;3.58;;;0.60;99.90;;;;;;5029898;28;19924;-54
2021/12/03 03:31:38;;;;;;;9.90;4.03;;;0.70;99.90;;;;;;5029620;28;20564;-53
2021/12/03 03:34:06;;;;;;;13.80;4.60;;;0.70;99.90;;;;;;5030113;28;20103;-54
2021/12/03 03:36:33;;;;;;;11.05;4.40;;;0.70;99.90;;;;;;5030017;28;20115;-53
2021/12/03 03:39:00;;;;;;;11.55;4.10;;;0.80;99.90;;;;;;5030005;28;20028;-54
2021/12/03 03:41:26;;;;;;;11.77;4.33;;;0.80;99.90;;;;;;5029842;28;20489;-53
2021/12/03 03:43:52;;;;;;;12.93;5.40;;;0.80;99.90;;;;;;5029577;28;20036;-54
2021/12/03 03:46:18;;;;;;;11.77;3.92;;;0.70;99.90;;;;;;5029799;28;20034;-54
2021/12/03 03:48:44;;;;;;;11.98;3.95;;;0.70;99.90;;;;;;5029346;28;20037;-53
2021/12/03 03:51:10;;;;;;;10.60;4.60;;;0.70;99.90;;;;;;5029686;28;20017;-53
2021/12/03 03:53:38;;;;;;;11.95;4.85;;;0.70;99.90;;;;;;5029069;28;20126;-53
2021/12/03 03:56:05;;;;;;;20.58;6.43;;;0.80;99.90;;;;;;5029692;28;20025;-54
2021/12/03 03:58:31;;;;;;;16.35;5.40;;;0.80;99.90;;;;;;5011502;28;20178;-54
2021/12/03 04:00:57;;;;;;;15.02;6.43;;;0.80;99.90;;;;;;5029303;28;20030;-54
2021/12/03 04:03:23;;;;;;;25.33;7.90;;;0.80;99.90;;;;;;5029074;28;20041;-54
2021/12/03 04:05:49;;;;;;;17.45;5.38;;;0.80;99.90;;;;;;5029624;28;20038;-54
2021/12/03 04:08:15;;;;;;;15.32;4.53;;;0.80;99.90;;;;;;5020418;28;20107;-53
2021/12/03 04:10:40;;;;;;;13.27;4.70;;;0.70;99.90;;;;;;5009393;28;20370;-54
2021/12/03 04:13:06;;;;;;;16.80;5.38;;;0.70;99.90;;;;;;5009595;28;20040;-53
2021/12/03 04:15:32;;;;;;;17.58;6.68;;;0.60;99.90;;;;;;5009592;28;20470;-54
2021/12/03 04:17:57;;;;;;;20.77;7.38;;;0.60;99.90;;;;;;5009347;28;20504;-54
2021/12/03 04:20:23;;;;;;;17.77;6.30;;;0.50;99.90;;;;;;5009403;28;20041;-54
2021/12/03 04:22:49;;;;;;;18.17;5.65;;;0.50;99.90;;;;;;5009149;28;20056;-54
2021/12/03 04:25:19;;;;;;;19.50;7.57;;;0.40;99.90;;;;;;5009370;28;20081;-54
2021/12/03 04:27:46;;;;;;;19.23;6.72;;;0.40;99.90;;;;;;5009435;28;20018;-54
2021/12/03 04:30:17;;;;;;;17.95;5.80;;;0.40;99.90;;;;;;5009137;28;20048;-53
2021/12/03 04:32:43;;;;;;;14.90;4.70;;;0.40;99.90;;;;;;5020042;28;20057;-54
2021/12/03 04:35:09;;;;;;;17.02;5.20;;;0.40;99.90;;;;;;5028972;28;20585;-53
2021/12/03 04:37:35;;;;;;;17.42;5.13;;;0.40;99.90;;;;;;5012220;28;20034;-54
2021/12/03 04:40:01;;;;;;;12.20;5.03;;;0.40;99.90;;;;;;5008998;28;20033;-54
2021/12/03 04:42:27;;;;;;;17.73;4.93;;;0.40;99.90;;;;;;5008761;28;20022;-54
2021/12/03 04:44:52;;;;;;;13.15;4.93;;;0.50;99.90;;;;;;5008947;28;20032;-54
2021/12/03 04:47:18;;;;;;;13.95;5.30;;;0.50;99.90;;;;;;5009216;28;20037;-54
2021/12/03 04:49:44;;;;;;;11.55;3.80;;;0.50;99.90;;;;;;5008572;28;20034;-53
2021/12/03 04:52:09;;;;;;;14.65;5.25;;;0.60;99.90;;;;;;5008718;28;20143;-53
2021/12/03 04:54:35;;;;;;;12.45;4.53;;;0.60;99.90;;;;;;5008560;28;20026;-54
2021/12/03 04:57:01;;;;;;;18.63;5.35;;;0.60;99.90;;;;;;5008502;28;20654;-53
2021/12/03 04:59:27;;;;;;;21.42;7.75;;;0.50;99.90;;;;;;5008865;28;20537;-53
2021/12/03 05:01:56;;;;;;;22.67;7.78;;;0.60;99.90;;;;;;5010956;28;20025;-53
2021/12/03 05:04:22;;;;;;;15.52;5.15;;;0.60;99.90;;;;;;5028180;28;20040;-54
2021/12/03 05:09:32;;;;;;;21.45;6.63;;;0.50;99.90;;;;;;5008771;28;20095;-54
2021/12/03 05:11:59;;;;;;;15.25;6.20;;;0.60;99.90;;;;;;5008826;28;20105;-54
2021/12/03 05:14:24;;;;;;;13.90;5.53;;;0.50;99.90;;;;;;5008436;28;20562;-54
2021/12/03 05:16:50;;;;;;;24.15;7.75;;;0.60;99.90;;;;;;5008589;28;20077;-54
2021/12/03 05:19:17;;;;;;;18.23;7.53;;;0.50;99.90;;;;;;5008767;28;20481;-53
2021/12/03 05:21:43;;;;;;;22.05;6.95;;;0.60;99.90;;;;;;5008725;28;20030;-54
2021/12/03 05:24:09;;;;;;;16.02;6.10;;;0.50;99.90;;;;;;5008302;28;20030;-54
2021/12/03 05:26:38;;;;;;;18.23;7.20;;;0.60;99.90;;;;;;5008247;28;20455;-54
2021/12/03 05:29:04;;;;;;;21.98;7.05;;;0.60;99.90;;;;;;5007537;28;20061;-53
2021/12/03 05:31:30;;;;;;;20.45;7.95;;;0.60;99.90;;;;;;5007365;28;20034;-54
2021/12/03 05:33:56;;;;;;;24.45;9.75;;;0.60;99.90;;;;;;5008402;28;20060;-54
2021/12/03 05:36:22;;;;;;;20.42;6.85;;;0.50;99.90;;;;;;4990028;28;20489;-53
2021/12/03 05:38:48;;;;;;;20.58;7.65;;;0.60;99.90;;;;;;5001077;28;20540;-54
2021/12/03 05:41:13;;;;;;;19.90;7.13;;;0.60;99.90;;;;;;5009094;28;20024;-54
2021/12/03 05:43:39;;;;;;;14.85;5.45;;;0.60;99.90;;;;;;5013149;28;20033;-53
2021/12/03 05:46:05;;;;;;;13.65;5.55;;;0.50;99.90;;;;;;5014934;28;20053;-54
2021/12/03 05:48:31;;;;;;;15.50;6.32;;;0.50;99.90;;;;;;5014851;28;20107;-53
2021/12/03 05:50:57;;;;;;;15.85;6.68;;;0.50;99.90;;;;;;5015273;28;20164;-54
2021/12/03 05:53:23;;;;;;;21.75;7.53;;;0.50;99.90;;;;;;5034039;28;20125;-53
2021/12/03 05:55:48;;;;;;;17.80;7.57;;;0.60;99.90;;;;;;5036709;28;20610;-53
2021/12/03 05:58:16;;;;;;;18.15;6.78;;;0.50;99.90;;;;;;5037693;28;20472;-54
2021/12/03 06:00:42;;;;;;;20.92;7.00;;;0.50;99.90;;;;;;5033409;28;20048;-53
2021/12/03 06:03:09;;;;;;;20.27;6.07;;;0.50;99.90;;;;;;5028094;28;20025;-53
2021/12/03 06:05:36;;;;;;;18.88;7.40;;;0.60;99.90;;;;;;5019649;28;20291;-53
2021/12/03 06:08:02;;;;;;;19.45;6.95;;;0.60;99.90;;;;;;5022127;28;20029;-54
2021/12/03 06:10:29;;;;;;;15.57;6.18;;;0.50;99.90;;;;;;5020541;28;20029;-54
2021/12/03 06:12:55;;;;;;;32.37;10.83;;;0.60;99.90;;;;;;5035434;28;20033;-57
2021/12/03 06:15:21;;;;;;;25.95;8.70;;;0.70;99.90;;;;;;5022991;28;20030;-58
2021/12/03 06:17:47;;;;;;;19.05;7.40;;;0.60;99.90;;;;;;5011291;28;20026;-54
2021/12/03 06:20:13;;;;;;;20.17;9.30;;;0.60;99.90;;;;;;4993706;28;20044;-54
2021/12/03 06:22:40;;;;;;;21.00;9.60;;;0.60;99.90;;;;;;5022108;28;20108;-54
2021/12/03 06:25:08;;;;;;;21.65;9.27;;;0.50;99.90;;;;;;5009386;28;20053;-54
2021/12/03 06:27:34;;;;;;;20.80;8.20;;;0.60;99.90;;;;;;5010579;28;20058;-54
2021/12/03 06:29:59;;;;;;;17.83;8.77;;;0.50;99.90;;;;;;5010490;28;20081;-54
2021/12/03 06:32:26;;;;;;;22.30;9.52;;;0.50;99.90;;;;;;5017651;28;20018;-54
2021/12/03 06:34:52;;;;;;;17.15;8.55;;;0.40;99.90;;;;;;5028679;28;20060;-54
2021/12/03 06:37:18;;;;;;;19.77;7.93;;;0.40;99.90;;;;;;5029113;28;20033;-54
2021/12/03 06:39:43;;;;;;;20.15;7.93;;;0.40;99.90;;;;;;5028693;28;20272;-54
2021/12/03 06:42:09;;;;;;;16.85;7.88;;;0.40;99.90;;;;;;5029138;28;20036;-54
2021/12/03 06:44:36;;;;;;;25.85;10.45;;;0.40;99.90;;;;;;5028787;28;20116;-54
2021/12/03 06:47:03;;;;;;;26.65;11.02;;;0.50;99.90;;;;;;5029161;28;20124;-54
2021/12/03 06:49:30;;;;;;;20.43;9.20;;;0.50;99.90;;;;;;5029099;28;20616;-54
2021/12/03 06:52:03;;;;;;;22.13;9.57;;;0.50;99.90;;;;;;5029051;28;20056;-54
2021/12/03 06:54:34;;;;;;;18.10;8.63;;;0.50;99.90;;;;;;5028766;28;20021;-54
2021/12/03 06:57:02;;;;;;;26.75;10.75;;;0.50;99.90;;;;;;5028800;28;20025;-54
2021/12/03 06:59:28;;;;;;;18.58;9.82;;;0.50;99.90;;;;;;5029581;28;20183;-54
2021/12/03 07:01:54;;;;;;;21.63;9.40;;;0.50;99.90;;;;;;5030239;28;20041;-53
2021/12/03 07:04:21;;;;;;;24.85;10.60;;;0.60;99.90;;;;;;5030458;28;20036;-54
2021/12/03 07:06:47;;;;;;;27.15;11.23;;;0.50;99.90;;;;;;5030484;28;20025;-54
2021/12/03 07:09:13;;;;;;;28.77;10.43;;;0.60;99.90;;;;;;5013147;28;20042;-54
2021/12/03 07:11:40;;;;;;;26.83;10.50;;;0.60;99.90;;;;;;5010744;28;20033;-54
2021/12/03 07:14:06;;;;;;;22.88;9.13;;;0.60;99.90;;;;;;5021853;28;20021;-54
2021/12/03 07:16:33;;;;;;;23.38;10.00;;;0.70;99.90;;;;;;5030571;28;20492;-54
2021/12/03 07:18:59;;;;;;;36.97;13.60;;;0.70;99.90;;;;;;5030344;28;20049;-54
2021/12/03 07:21:25;;;;;;;23.50;11.05;;;0.60;99.90;;;;;;5030176;28;20026;-54
2021/12/03 07:23:53;;;;;;;22.80;9.75;;;0.50;99.90;;;;;;5030107;28;20021;-54
2021/12/03 07:26:20;;;;;;;23.13;11.40;;;0.50;99.90;;;;;;5030273;28;20021;-55
2021/12/03 07:28:45;;;;;;;21.30;9.70;;;0.50;99.90;;;;;;5029887;28;20101;-55
2021/12/03 07:31:11;;;;;;;19.08;8.90;;;0.40;99.90;;;;;;5029737;28;20053;-54
2021/12/03 07:33:39;;;;;;;18.00;8.57;;;0.40;99.90;;;;;;5029839;28;20049;-53
2021/12/03 07:36:07;;;;;;;15.68;8.05;;;0.50;99.90;;;;;;5029890;28;20562;-54
2021/12/03 07:38:35;;;;;;;20.55;8.00;;;0.50;99.90;;;;;;5029731;28;20029;-53
2021/12/03 07:41:01;;;;;;;19.88;8.80;;;0.60;99.90;;;;;;5029381;28;20052;-53
2021/12/03 07:43:27;;;;;;;20.80;9.75;;;0.70;99.90;;;;;;5038503;28;20036;-53
2021/12/03 07:45:53;;;;;;;28.98;9.88;;;0.60;99.90;;;;;;5031551;28;20032;-54
2021/12/03 07:48:22;;;;;;;22.38;9.27;;;0.70;99.90;;;;;;5036935;28;20238;-53
2021/12/03 07:50:48;;;;;;;21.40;7.75;;;0.70;99.90;;;;;;5020766;28;20029;-54
2021/12/03 07:53:17;;;;;;;14.30;6.38;;;0.60;99.90;;;;;;5027962;28;20049;-55
2021/12/03 07:55:44;;;;;;;24.63;13.25;;;0.70;99.90;;;;;;5029523;28;20130;-54
2021/12/03 07:58:10;;;;;;;;;;;0.70;99.90;;;;;;5029540;28;20471;-59
2021/12/03 08:00:36;;;;;;;18.10;6.90;;;0.60;99.90;;;;;;5017435;28;19909;-54
2021/12/03 08:03:02;;;;;;;17.80;7.10;;;0.60;99.90;;;;;;5020330;28;20373;-55
2021/12/03 08:05:30;;;;;;;20.73;10.02;;;0.60;99.90;;;;;;5029167;28;20036;-54
2021/12/03 08:07:58;;;;;;;28.77;11.30;;;0.60;99.90;;;;;;5014078;28;20037;-56
2021/12/03 08:10:23;;;;;;;18.73;10.27;;;0.60;99.90;;;;;;5028401;28;20033;-55
2021/12/03 08:12:49;;;;;;;17.83;9.18;;;0.60;99.90;;;;;;5028837;28;20580;-56
2021/12/03 08:15:16;;;;;;;18.77;9.45;;;0.60;99.90;;;;;;5049139;28;20021;-55
2021/12/03 08:17:43;;;;;;;27.02;11.15;;;0.60;99.90;;;;;;5049176;28;20647;-55
2021/12/03 08:20:11;;;;;;;24.92;10.23;;;0.70;99.90;;;;;;5048754;28;20056;-55
2021/12/03 08:22:36;;;;;;;17.55;7.97;;;0.60;99.90;;;;;;5048616;28;20040;-55
2021/12/03 08:25:03;;;;;;;13.75;5.43;;;0.70;99.90;;;;;;5048618;28;20033;-55
2021/12/03 08:27:29;;;;;;;11.45;5.32;;;0.70;99.90;;;;;;5048809;28;20041;-56
2021/12/03 08:29:55;;;;;;;18.25;5.22;;;0.70;99.90;;;;;;5047656;28;20120;-55
2021/12/03 08:32:20;;;;;;;11.23;4.25;;;0.80;99.90;;;;;;5040436;28;20025;-56
2021/12/03 08:34:46;;;;;;;15.20;5.25;;;0.80;99.90;;;;;;5028799;28;20083;-55
2021/12/03 08:37:12;;;;;;;15.68;5.13;;;0.80;99.90;;;;;;5028679;28;20026;-55
2021/12/03 08:39:38;;;;;;;16.40;5.75;;;0.70;99.90;;;;;;5027847;28;20044;-55
2021/12/03 08:42:06;;;;;;;16.27;6.10;;;0.70;99.90;;;;;;5028846;28;20032;-55
2021/12/03 08:44:32;;;;;;;12.70;5.63;;;0.70;99.90;;;;;;5028410;28;20061;-56
2021/12/03 08:47:03;;;;;;;18.13;6.25;;;0.90;99.90;;;;;;5026903;28;20026;-53
2021/12/03 08:57:19;;;;;;;16.73;6.40;;;1.00;99.90;;;;;;5027787;28;20086;-54
2021/12/03 08:59:45;;;;;;;20.35;8.32;;;1.00;99.90;;;;;;5027134;28;20029;-54
2021/12/03 09:02:11;;;;;;;12.98;5.68;;;1.00;99.90;;;;;;5028373;28;20025;-53
2021/12/03 09:04:37;;;;;;;12.27;4.70;;;1.40;99.90;;;;;;5027844;28;20056;-53
2021/12/03 09:07:04;;;;;;;14.20;5.30;;;2.10;99.90;;;;;;5028543;28;20025;-53
2021/12/03 09:09:31;;;;;;;13.65;4.13;;;3.10;99.90;;;;;;5008418;28;20494;-54
2021/12/03 09:11:57;;;;;;;12.57;4.03;;;4.20;99.90;;;;;;5008751;28;20025;-54
2021/12/03 09:17:17;;;;;;;13.90;4.00;;;5.00;93.90;;;;;;5027846;28;20030;-54
2021/12/03 09:25:08;;;;;;;15.02;4.53;;;5.60;93.10;;;;;;5027993;28;20029;-53
2021/12/03 09:27:35;;;;;;;12.10;3.70;;;4.60;90.70;;;;;;5028077;28;20509;-54
2021/12/03 09:30:02;;;;;;;13.27;3.58;;;6.00;90.80;;;;;;5017149;28;20070;-53
2021/12/03 09:32:31;;;;;;;12.77;3.45;;;6.00;87.50;;;;;;5009777;28;20018;-54
2021/12/03 09:34:57;;;;;;;8.98;3.17;;;5.60;83.50;;;;;;5010503;28;20049;-54
2021/12/03 09:37:23;;;;;;;12.67;3.33;;;5.90;83.60;;;;;;5010442;28;20025;-53
2021/12/03 09:39:49;;;;;;;15.30;3.70;;;5.10;86.50;;;;;;5029472;28;20276;-54
2021/12/03 09:42:21;;;;;;;;;;;6.00;84.40;;;;;;5046924;22;20048;-87
2021/12/03 09:44:52;;;;;;;9.45;3.92;;;5.60;82.60;;;;;;5032944;28;19965;-87
2021/12/03 09:47:19;;;;;;;12.70;4.53;;;6.30;80.30;;;;;;5003414;28;20022;-88
2021/12/03 09:49:53;;;;;;;9.88;4.22;;;5.50;82.90;;;;;;4994945;28;20030;-90
2021/12/03 09:55:00;;;;;;;16.73;6.25;;;6.70;79.40;;;;;;5026174;28;20462;-83
2021/12/03 09:57:33;;;;;;;10.45;4.55;;;6.90;74.80;;;;;;5034202;28;20033;-87
2021/12/03 10:13:38;;;;;;;8.70;3.53;;;4.70;80.40;;;;;;5012672;28;20064;-90
2021/12/03 10:24:40;;;;;;;12.15;3.92;;;3.40;81.80;;;;;;5012337;28;20037;-90
2021/12/03 10:32:30;;;;;;;6.38;2.97;;;4.20;80.70;;;;;;5013795;28;20057;-88
2021/12/03 10:40:33;;;;;;;3.10;1.58;;;4.50;72.70;;;;;;5017360;28;21500;-87
2021/12/03 10:45:57;;;;;;;3.77;1.70;;;4.10;71.30;;;;;;5016528;28;20026;-88
2021/12/03 10:48:51;;;;;;;4.22;2.17;;;4.10;72.30;;;;;;4999060;28;20265;-87
2021/12/03 10:54:33;;;;;;;5.88;2.20;;;3.50;70.40;;;;;;5017124;28;20041;-85
2021/12/03 11:00:09;;;;;;;8.18;3.03;;;4.30;69.70;;;;;;5017639;28;20022;-87
2021/12/03 11:40:24;;;;;;;10.07;3.50;;;4.10;69.70;;;;;;5021676;28;20041;-87
2021/12/03 12:05:46;;;;;;;14.85;5.65;;;4.60;71.30;;;;;;5017111;28;20053;-83
2021/12/03 12:29:24;;;;;;;14.55;4.50;;;4.50;70.70;;;;;;5011805;28;20125;-81
2021/12/03 12:32:27;;;;;;;18.05;6.45;;;4.70;71.20;;;;;;4998407;28;20404;-84
2021/12/03 12:36:44;;;;;;;21.05;5.53;;;4.60;69.80;;;;;;5015613;28;20054;-83
2021/12/03 12:45:07;;;;;;;15.23;6.38;;;5.10;68.90;;;;;;4977735;28;20136;-81
2021/12/03 13:15:58;;;;;;;11.77;5.47;;;4.30;74.90;;;;;;5004160;28;20096;-81
2021/12/03 13:24:39;;;;;;;28.17;9.85;;;4.10;75.40;;;;;;5000345;28;20538;-83
2021/12/03 14:10:31;;;;;;;31.02;12.85;;;3.70;72.90;;;;;;5016066;28;20908;-83
2021/12/03 14:49:12;;;;;;;58.45;21.25;;;2.30;85.60;;;;;;4955787;28;20109;-81
2021/12/03 14:57:30;;;;;;;51.20;20.25;;;2.00;90.10;;;;;;5015755;28;20022;-80
2021/12/03 15:22:43;;;;;;;33.67;12.25;;;1.40;98.30;;;;;;5013166;28;20439;-83
2021/12/03 15:54:51;;;;;;;50.80;21.77;;;0.90;99.90;;;;;;4993039;28;20037;-79
2021/12/03 16:08:15;;;;;;;52.53;23.08;;;0.70;99.90;;;;;;5023558;28;20041;-83
2021/12/03 16:52:53;;;;;;;53.85;22.23;;;0.30;99.90;;;;;;5022521;28;20026;-85
2021/12/03 16:55:22;;;;;;;59.00;24.77;;;0.30;99.90;;;;;;5018083;28;20025;-84
2021/12/03 16:57:51;;;;;;;47.42;21.58;;;0.30;99.90;;;;;;5020513;28;20381;-86
2021/12/03 17:11:10;;;;;;;57.63;25.98;;;0.20;99.90;;;;;;5014746;28;20123;-87
2021/12/03 17:58:35;;;;;;;88.30;32.10;;;-0.10;99.90;;;;;;5014853;28;20033;-83
2021/12/03 18:01:12;;;;;;;75.68;30.38;;;-0.10;99.90;;;;;;5018047;28;20034;-78
2021/12/03 18:09:01;;;;;;;58.25;24.83;;;-0.20;99.90;;;;;;5021872;28;20040;-82
2021/12/03 18:15:11;;;;;;;48.40;21.33;;;-0.30;99.90;;;;;;5016944;28;20034;-85
2021/12/03 18:46:48;;;;;;;52.70;20.58;;;-0.30;99.90;;;;;;5034897;28;20053;-82
2021/12/03 18:54:36;;;;;;;78.18;26.50;;;-0.20;99.90;;;;;;5038064;28;20040;-83
2021/12/03 18:57:07;;;;;;;65.70;25.30;;;-0.20;99.90;;;;;;4981362;28;20121;-84
2021/12/03 18:59:38;;;;;;;57.80;24.17;;;-0.20;99.90;;;;;;4999311;28;20053;-84
2021/12/03 19:02:07;;;;;;;56.20;23.23;;;-0.20;99.90;;;;;;4999773;28;20031;-80
2021/12/03 19:04:42;;;;;;;53.05;20.80;;;-0.20;99.90;;;;;;4998730;28;20030;-82
2021/12/03 19:07:16;;;;;;;50.38;19.75;;;-0.20;99.90;;;;;;4996352;28;20030;-78
2021/12/03 19:09:47;;;;;;;43.75;19.83;;;-0.10;99.90;;;;;;5035287;28;20457;-83
2021/12/03 19:12:21;;;;;;;53.85;22.30;;;-0.10;99.90;;;;;;5016079;28;20049;-84
2021/12/03 19:14:56;;;;;;;41.08;16.85;;;-0.10;99.90;;;;;;5015036;28;20101;-82
2021/12/03 19:17:23;;;;;;;40.03;15.70;;;-0.10;99.90;;;;;;4997559;28;20034;-78
2021/12/03 19:19:54;;;;;;;39.13;16.02;;;-0.10;99.90;;;;;;4997110;28;20030;-87
2021/12/03 19:22:22;;;;;;;39.15;18.15;;;0.00;99.90;;;;;;5008424;28;20393;-81
2021/12/03 19:24:48;;;;;;;44.75;18.00;;;0.00;99.90;;;;;;5009983;28;20030;-83
2021/12/03 19:27:14;;;;;;;52.28;20.85;;;-0.10;99.90;;;;;;5019034;28;20022;-82
2021/12/03 19:29:43;;;;;;;55.85;22.52;;;-0.10;99.90;;;;;;5015689;28;20053;-85
2021/12/03 19:32:09;;;;;;;53.92;21.05;;;-0.20;99.90;;;;;;5032754;28;20037;-82
2021/12/03 19:34:35;;;;;;;59.28;22.55;;;-0.20;99.90;;;;;;5015331;28;20026;-87
2021/12/03 19:37:02;;;;;;;53.07;21.57;;;-0.20;99.90;;;;;;4997538;28;20179;-85
2021/12/03 19:39:28;;;;;;;56.80;22.15;;;-0.20;99.90;;;;;;5017424;28;20283;-84
2021/12/03 19:47:20;;;;;;;57.88;23.42;;;-0.20;99.90;;;;;;5013047;28;20163;-82
2021/12/03 19:49:51;;;;;;;55.50;21.27;;;-0.10;99.90;;;;;;5013675;28;20033;-85
2021/12/03 19:52:29;;;;;;;50.45;21.67;;;-0.10;99.90;;;;;;5008776;28;20022;-82
2021/12/03 19:54:55;;;;;;;46.55;20.98;;;-0.10;99.90;;;;;;4994667;28;20025;-82
2021/12/03 19:57:22;;;;;;;51.65;20.65;;;-0.10;99.90;;;;;;5012701;28;20051;-82
2021/12/03 19:59:48;;;;;;;53.95;19.27;;;-0.10;99.90;;;;;;5012330;28;20029;-83
2021/12/03 20:02:15;;;;;;;47.70;18.85;;;-0.10;99.90;;;;;;5010728;28;20102;-84
2021/12/03 20:04:41;;;;;;;;;;;-0.10;99.90;;;;;;5013531;28;20062;-86
2021/12/03 20:07:07;;;;;;;47.63;17.63;;;0.00;99.90;;;;;;5000672;28;19966;-82
2021/12/03 20:09:45;;;;;;;39.22;16.90;;;0.00;99.90;;;;;;4983680;28;20497;-81
2021/12/03 20:12:13;;;;;;;39.80;16.85;;;0.00;99.90;;;;;;5026637;28;20089;-83
2021/12/03 20:14:41;;;;;;;39.10;15.68;;;0.00;99.90;;;;;;5033851;28;20038;-81
2021/12/03 20:17:18;;;;;;;38.50;16.10;;;0.00;99.90;;;;;;5022909;28;20057;-84
2021/12/03 20:19:49;;;;;;;36.10;16.08;;;0.10;99.90;;;;;;5014021;28;20134;-85
2021/12/03 20:22:36;;;;;;;33.60;14.30;;;0.10;99.90;;;;;;4999047;28;20061;-91
2021/12/03 20:25:36;;;;;;;30.55;14.05;;;0.10;99.90;;;;;;4998012;28;20072;-86
2021/12/03 20:28:07;;;;;;;32.22;12.23;;;0.20;99.90;;;;;;5011899;28;20116;-88
2021/12/03 20:38:04;;;;;;;32.13;13.48;;;0.40;99.90;;;;;;5009831;28;20033;-89
2021/12/03 20:40:33;;;;;;;34.35;13.68;;;0.40;99.90;;;;;;5012397;28;20029;-82
2021/12/03 20:43:52;;;;;;;34.17;13.60;;;0.40;99.90;;;;;;5018616;28;20076;-83
2021/12/03 21:09:31;;;;;;;38.78;15.13;;;0.60;99.90;;;;;;5034326;28;20067;-91
2021/12/03 21:12:00;;;;;;;37.63;13.82;;;0.60;99.90;;;;;;5025292;28;20529;-90
2021/12/03 21:14:30;;;;;;;32.40;12.52;;;0.70;99.90;;;;;;5021468;28;20033;-90
2021/12/03 21:19:59;;;;;;;32.47;12.45;;;0.70;99.90;;;;;;4999636;28;20068;-92
2021/12/03 21:22:53;;;;;;;30.92;12.98;;;0.70;99.90;;;;;;5020211;28;20029;-91
2021/12/03 21:25:24;;;;;;;33.65;14.88;;;0.80;99.90;;;;;;5026481;28;20525;-86